• Join FlightAware (Why Join?)
  • Login
  • US Flag 
07:56AM EDT


 

Airport Tracker/Info


-or-


 

Live Flight TrackerFlight Track Log ✈ CSH801 ✈ 22-Jan-2014 ✈ ZSPD / PVG - RCSS / TSA

Flight Track Log - Related Links

Times and Time Zones

All times are in EST time to prevent confusion due to time zone crossing. See the CSH801 flight status page for this flight to view local times or setup timezone preferences in your user account.

Time Position Orientation Groundspeed Altitude Reporting Facility
EST Latitude Longitude Course Direction KTS MPH feet Rate Location/Type
09:23PM 28.6345 121.6896 182° South  Level Estimated
09:24PM 28.5536 121.6864 182° South  Level Estimated
09:25PM 28.4727 121.6832 182° South  Level Estimated
09:26PM 28.3918 121.6799 182° South  Level Estimated
09:27PM 28.3109 121.6767 182° South  Level Estimated
09:28PM 28.2300 121.6735 182° South  Level Estimated
09:29PM 28.1491 121.6703 182° South  Level Estimated
09:30PM 28.0682 121.6671 182° South  Level Estimated
09:31PM 27.9872 121.6639 182° South  Level Estimated
09:32PM 27.9063 121.6607 182° South  Level Estimated
09:33PM 27.8254 121.6575 182° South  Level Estimated
09:34PM 27.7445 121.6543 182° South  Level Estimated
09:35PM 27.6636 121.6512 182° South  Level Estimated
09:36PM 27.5827 121.6480 182° South  Level Estimated
09:37PM 27.5018 121.6448 182° South  Level Estimated
09:38PM 27.4209 121.6416 182° South  Level Estimated
09:39PM 27.3400 121.6385 182° South  Level Estimated
09:40PM 27.2591 121.6353 182° South  Level Estimated
09:41PM 27.1782 121.6322 182° South  Level Estimated
09:42PM 27.0972 121.6291 182° South  Level Estimated
09:43PM 27.0163 121.6259 182° South  Level Estimated
09:44PM 26.9354 121.6228 182° South  Level Estimated
09:45PM 26.8545 121.6196 182° South  Level Estimated
09:46PM 26.7736 121.6165 182° South  Level Estimated
09:47PM 26.6927 121.6134 182° South  Level Estimated
09:48PM 26.6118 121.6103 182° South  Level Estimated
09:49PM 26.5308 121.6072 182° South  Level Estimated
09:50PM 26.4499 121.6040 182° South  Level Estimated
09:51PM 26.3690 121.6010 182° South  Level Estimated
09:52PM 26.2881 121.5978 182° South  Level Estimated
09:53PM 26.2072 121.5947 182° South  Level Estimated
09:54PM 26.1262 121.5917 182° South  Level Estimated
09:55PM 26.0453 121.5886 182° South  Level Estimated
09:56PM 25.9644 121.5855 182° South  Level Estimated
09:57PM 25.8835 121.5824 182° South  Level Estimated
09:58PM 25.8026 121.5793 182° South  Level Estimated
09:59PM 25.7216 121.5763 182° South  Level Estimated
10:00PM 25.6407 121.5732 182° South  Level Estimated
10:01PM 25.5598 121.5701 182° South  Level Estimated
10:02PM 25.4849 121.5673 182° South  Level Estimated
10:03PM 25.4100 121.5645 182° South  Level Estimated
10:04PM 25.3351 121.5617 182° South  Level Estimated
10:05PM 25.2601 121.5588 182° South  Level Estimated
10:06PM 25.1934 121.5563 182° South  Level Estimated
10:07PM 25.1268 121.5538 182° South  Level Estimated
10:08PM 25.0694 121.5517 182° South  Level Estimated
10:09PM 25.0694 121.5517 326° Northwest  Level Estimated
10:10PM 25.0694 121.5517 326° Northwest  Level Estimated
10:11PM 25.0694 121.5517 326° Northwest  Level Estimated
10:12PM 25.0694 121.5517 326° Northwest  Level Estimated
10:13PM 25.0694 121.5517 326° Northwest  Level Estimated
10:14PM 25.0694 121.5517 326° Northwest  Level Estimated
10:15PM 25.0694 121.5517 326° Northwest  Level Estimated
10:16PM 25.0694 121.5517 326° Northwest  Level Estimated
10:17PM 25.0694 121.5517 326° Northwest  Level Estimated
10:18PM 25.0694 121.5517 326° Northwest  Level Estimated
10:19PM 25.0694 121.5517 326° Northwest  Level Estimated
10:20PM 25.0694 121.5517 326° Northwest  Level Estimated
10:21PM 25.0694 121.5517 326° Northwest  Level Estimated
10:22PM 25.0694 121.5517 326° Northwest  Level Estimated
10:23PM 25.0694 121.5517 326° Northwest  Level Estimated
10:24PM 25.0694 121.5517 326° Northwest  Level Estimated
10:25PM 25.0694 121.5517 326° Northwest  Level Estimated
10:26PM 25.0694 121.5517 326° Northwest  Level Estimated
10:27PM 25.0694 121.5517 326° Northwest  Level Estimated
10:28PM 25.0694 121.5517 326° Northwest  Level Estimated
10:29PM 25.0694 121.5517 326° Northwest  Level Estimated
10:30PM 25.0694 121.5517 326° Northwest  Level Estimated
10:31PM 25.0694 121.5517 326° Northwest  Level Estimated
10:32PM 25.0694 121.5517 326° Northwest  Level Estimated
10:33PM 25.0694 121.5517 326° Northwest  Level Estimated